Startpagina
METAR-TAF:

METAR-TAF

Vliegvelden :

Luchthaven Managua

Managua, Nicaragua

breedte: 12-09N, lengte: 086-10W, hoogte: 50 m

Actueel weer

Dit bericht is 28 minuten geleden gemaakt, om 02:00 UTC
Wind 8 kt uit het oosten
Temperatuur 28°C
Vochtigheid 74%
Druk 1011 hPa
Zicht 10 km of meer
Weinig wolken op 2000 ft
Verspreide wolken op 30000 ft

METAR: MNMG 260200Z 09008KT 9999 FEW020 SCT300 28/23 Q1010 A2984 NOSIG

Tijdstip: 20:28 (02:28 UTC)

Verwachting

Dit bericht is 4 uur en het 38 minuten geleden gemaakt, om 21:50 UTC
Verwachting geldig van 26 om 00 UTC tot 26 om 24 UTC
Wind 10 kt uit het oosten
Zicht 10 km of meer
Weinig wolken op 2100 ft, Cumulonimbus.
Verspreide wolken op 30000 ft
Tijdelijke
van 26 om 03 UTC tot 26 om 10 UTC
Wind 8 kt uit het zuidoosten
Zicht: 7000 m
Weinig wolken op 2000 ft, Cumulonimbus.
Verspreide wolken op 2200 ft

TAF: MNMG 252150Z 2600/2624 08010KT 9999 FEW021CB SCT300 TEMPO 2603/2610 13008KT 7000 RA/DZ FEW020CB SCT022

Waarnemingen en weersverwachtingen van meer dan 4000 vliegvelden (METAR en TAF).

De beschikbare stations zijn de gele en rode punten op de kaart.

Ga met uw muis naar het station om de naam te zien.

Klik dan om waarnemingen en weersverwachtingen te zien.

kaart wijzigen: klik op de groene knoppen met een zwart kruis om in te zoomen, op de groene knop met een streepje om uit te zoomen of op de groene pijlen voor aangrenzende kaarten.


METAR-TAF: